createdAt,value
2023-04-23T00:01:39.794Z,18.05
2023-04-23T00:11:46.907Z,18.02
2023-04-23T00:21:53.572Z,18.02
2023-04-23T00:32:00.920Z,18.05
2023-04-23T00:42:07.588Z,18.05
2023-04-23T00:52:14.908Z,18.03
2023-04-23T01:02:21.802Z,18.03
2023-04-23T01:12:28.778Z,18.05
2023-04-23T01:22:34.999Z,18.05
2023-04-23T01:32:41.954Z,18.03
2023-04-23T01:42:49.070Z,18.03
2023-04-23T01:52:55.902Z,18.03
2023-04-23T02:03:03.205Z,18.02
2023-04-23T02:13:10.256Z,18.00
2023-04-23T02:23:17.791Z,18.01
2023-04-23T02:33:24.985Z,18.01
2023-04-23T02:43:32.062Z,17.98
2023-04-23T02:53:38.232Z,18.00
2023-04-23T03:03:46.078Z,18.02
2023-04-23T03:13:53.583Z,18.00
2023-04-23T03:24:00.652Z,18.00
2023-04-23T03:34:08.553Z,18.00
2023-04-23T03:44:16.300Z,18.00
2023-04-23T03:54:23.889Z,17.98
2023-04-23T04:04:30.813Z,17.98
2023-04-23T04:14:38.655Z,17.96
2023-04-23T04:24:45.657Z,17.96
2023-04-23T04:34:53.098Z,17.96
2023-04-23T04:45:00.045Z,17.98
2023-04-23T04:55:07.071Z,17.98
2023-04-23T05:05:13.744Z,17.98
2023-04-23T05:15:20.766Z,17.98
2023-04-23T05:25:28.259Z,18.00
2023-04-23T05:35:35.643Z,17.98
2023-04-23T05:45:43.012Z,17.98
2023-04-23T05:55:50.342Z,18.01
2023-04-23T06:05:57.095Z,18.01
2023-04-23T06:16:04.114Z,18.01
2023-04-23T06:26:11.614Z,18.01
2023-04-23T06:36:19.132Z,18.01
2023-04-23T06:46:26.614Z,18.03
2023-04-23T06:56:34.124Z,18.03
2023-04-23T07:06:41.208Z,18.05
2023-04-23T07:16:48.525Z,18.00
2023-04-23T07:26:55.674Z,18.02
2023-04-23T07:37:03.266Z,18.01
2023-04-23T07:47:10.667Z,18.05
2023-04-23T07:57:17.876Z,18.02
2023-04-23T08:07:24.514Z,18.02
2023-04-23T08:17:31.618Z,18.01
2023-04-23T08:27:39.073Z,18.07
2023-04-23T08:37:45.765Z,18.07
2023-04-23T08:47:52.909Z,18.14
2023-04-23T08:58:00.316Z,18.14
2023-04-23T09:08:07.024Z,18.15
2023-04-23T09:18:13.955Z,18.16
2023-04-23T09:28:21.347Z,18.15
2023-04-23T09:38:28.091Z,18.15
2023-04-23T09:48:35.432Z,18.20
2023-04-23T09:58:42.419Z,18.20
2023-04-23T10:08:49.460Z,18.23
2023-04-23T10:18:56.542Z,18.27
2023-04-23T10:29:03.212Z,18.27
2023-04-23T10:39:10.351Z,18.38
2023-04-23T10:49:17.275Z,18.46
2023-04-23T10:59:24.413Z,18.57
2023-04-23T11:09:31.448Z,18.57
2023-04-23T11:19:38.409Z,18.56
2023-04-23T11:29:45.700Z,18.61
2023-04-23T11:39:53.528Z,18.59
2023-04-23T11:50:00.883Z,18.63
2023-04-23T12:00:07.438Z,18.69
2023-04-23T12:10:16.584Z,18.68
2023-04-23T12:20:23.656Z,18.71
2023-04-23T12:30:30.950Z,18.73
2023-04-23T12:40:38.182Z,18.76
2023-04-23T12:50:44.793Z,18.76
2023-04-23T13:00:52.347Z,18.78
2023-04-23T13:10:59.972Z,18.75
2023-04-23T13:21:07.464Z,18.76
2023-04-23T13:31:14.477Z,18.77
2023-04-23T13:41:21.438Z,18.75
2023-04-23T13:51:35.389Z,18.75
2023-04-23T14:01:40.561Z,18.73
2023-04-23T14:11:47.205Z,18.73
2023-04-23T14:21:54.257Z,18.73
2023-04-23T14:32:01.470Z,18.73
2023-04-23T14:42:09.478Z,18.69
2023-04-23T14:52:16.656Z,18.69
2023-04-23T15:02:23.806Z,18.71
2023-04-23T15:12:31.488Z,18.69
2023-04-23T15:22:38.763Z,18.68
2023-04-23T15:32:45.690Z,18.68
2023-04-23T15:42:52.380Z,18.69
2023-04-23T15:52:59.370Z,18.66
2023-04-23T16:03:06.252Z,18.68
2023-04-23T16:13:13.719Z,18.62
2023-04-23T16:23:20.975Z,18.62
2023-04-23T16:33:28.132Z,18.59
2023-04-23T16:43:35.144Z,18.62
2023-04-23T16:53:42.267Z,18.59
2023-04-23T17:03:50.161Z,18.59
2023-04-23T17:13:57.814Z,18.56
2023-04-23T17:24:05.226Z,18.53
2023-04-23T17:34:12.025Z,18.53
2023-04-23T17:44:19.120Z,18.52
2023-04-23T17:54:26.114Z,18.49
2023-04-23T18:04:33.361Z,18.49
2023-04-23T18:14:40.721Z,18.48
2023-04-23T18:24:47.050Z,18.48
2023-04-23T18:34:54.327Z,18.41
2023-04-23T18:45:00.752Z,18.38
2023-04-23T18:55:07.917Z,18.38
2023-04-23T19:05:15.342Z,18.34
2023-04-23T19:15:22.704Z,18.30
2023-04-23T19:25:29.842Z,18.29
2023-04-23T19:35:39.933Z,18.29
2023-04-23T19:45:47.642Z,18.25
2023-04-23T19:55:54.890Z,18.27
2023-04-23T20:06:02.101Z,18.25
2023-04-23T20:16:08.624Z,18.25
2023-04-23T20:26:16.138Z,18.25
2023-04-23T20:36:22.737Z,18.25
2023-04-23T20:46:30.167Z,18.22
2023-04-23T20:56:38.235Z,18.22
2023-04-23T21:06:45.009Z,18.22
2023-04-23T21:16:52.247Z,18.23
2023-04-23T21:26:59.028Z,18.23
2023-04-23T21:37:06.491Z,18.20
2023-04-23T21:47:13.571Z,18.20
2023-04-23T21:57:20.307Z,18.20
2023-04-23T22:07:27.489Z,18.20
2023-04-23T22:17:34.383Z,18.22
2023-04-23T22:27:41.293Z,18.22
2023-04-23T22:37:48.832Z,18.22
2023-04-23T22:47:55.681Z,18.20
2023-04-23T22:58:03.070Z,18.23
2023-04-23T23:08:10.974Z,18.18
2023-04-23T23:18:17.692Z,18.18
2023-04-23T23:28:25.103Z,18.18
2023-04-23T23:38:31.888Z,18.18
2023-04-23T23:48:39.006Z,18.20
2023-04-23T23:58:45.708Z,18.20
